Time;durP1;ratioP1;P1;durP2;ratioP2;P2;SDS_P1;SDS_P2;PMS_P1;PMS_P2;Temp;Humidity;BMP_temperature;BMP_pressure;BME280_temperature;BME280_humidity;BME280_pressure;Samples;Min_cycle;Max_cycle;Signal;HPM_P1;HPM_P2
2021/09/12 00:02:54;;;;;;;23.95;12.18;;;;;;;17.03;100.00;101685.72;10501769;28;20049;-53
2021/09/12 00:07:57;;;;;;;22.40;11.43;;;;;;;17.31;100.00;101678.44;10504227;28;20127;-55
2021/09/12 00:12:59;;;;;;;20.08;13.85;;;;;;;17.34;100.00;101680.03;10503957;28;20500;-56
2021/09/12 00:18:02;;;;;;;23.85;13.90;;;;;;;17.41;100.00;101668.03;10504427;28;20053;-57
2021/09/12 00:23:04;;;;;;;28.23;19.23;;;;;;;17.18;100.00;101667.03;10503989;28;20056;-55
2021/09/12 00:28:06;;;;;;;29.92;18.50;;;;;;;17.21;100.00;101665.00;10503502;28;20055;-53
2021/09/12 00:33:09;;;;;;;21.13;15.55;;;;;;;17.15;100.00;101665.47;10503205;28;20052;-53
2021/09/12 00:38:13;;;;;;;27.95;18.73;;;;;;;17.13;100.00;101664.75;10503158;28;20052;-55
2021/09/12 00:43:15;;;;;;;19.52;16.23;;;;;;;17.17;100.00;101654.78;10502917;28;20063;-56
2021/09/12 00:48:17;;;;;;;27.15;17.13;;;;;;;16.95;100.00;101653.66;10502926;28;20049;-54
2021/09/12 00:53:21;;;;;;;21.75;13.50;;;;;;;17.16;100.00;101653.06;10503070;28;20048;-58
2021/09/12 00:58:24;;;;;;;26.52;12.57;;;;;;;16.85;100.00;101647.31;10502526;28;20067;-53
2021/09/12 01:03:26;;;;;;;24.40;15.93;;;;;;;16.88;100.00;101639.19;10501078;28;20049;-53
2021/09/12 01:08:29;;;;;;;17.45;12.73;;;;;;;16.98;100.00;101639.34;10502188;28;20044;-53
2021/09/12 01:13:38;;;;;;;19.30;13.48;;;;;;;16.94;100.00;101637.88;10500919;28;20055;-57
2021/09/12 01:18:41;;;;;;;16.42;11.05;;;;;;;16.95;100.00;101629.00;10501637;28;20078;-57
2021/09/12 01:23:43;;;;;;;25.95;14.25;;;;;;;16.75;100.00;101643.63;10501284;28;20507;-55
2021/09/12 01:28:46;;;;;;;23.45;13.38;;;;;;;16.49;100.00;101633.91;10501037;28;20052;-57
2021/09/12 01:33:48;;;;;;;21.80;14.07;;;;;;;16.53;100.00;101629.25;10501352;28;20041;-54
2021/09/12 01:38:51;;;;;;;16.23;11.65;;;;;;;16.61;100.00;101634.84;10501123;28;20052;-55
2021/09/12 01:43:58;;;;;;;21.38;13.23;;;;;;;16.55;100.00;101635.25;10500997;28;20052;-56
2021/09/12 01:49:06;;;;;;;24.33;13.50;;;;;;;16.48;100.00;101631.34;10500099;28;20051;-53
2021/09/12 01:54:08;;;;;;;16.92;10.25;;;;;;;16.49;100.00;101630.38;10499378;28;20063;-52
2021/09/12 01:59:11;;;;;;;17.90;11.18;;;;;;;16.47;100.00;101629.66;10500046;28;20524;-51
2021/09/12 02:04:13;;;;;;;18.00;10.90;;;;;;;16.15;100.00;101633.56;10499955;28;20404;-54
2021/09/12 02:09:16;;;;;;;16.65;9.93;;;;;;;16.23;100.00;101638.31;10499893;28;20044;-57
2021/09/12 02:14:18;;;;;;;21.90;8.93;;;;;;;16.08;100.00;101642.00;10499122;28;20051;-53
2021/09/12 02:19:20;;;;;;;15.88;9.00;;;;;;;15.91;100.00;101640.50;10499402;28;20052;-56
2021/09/12 02:24:23;;;;;;;16.90;10.10;;;;;;;15.51;100.00;101649.19;10498784;28;20067;-53
2021/09/12 02:29:25;;;;;;;15.07;8.25;;;;;;;15.91;100.00;101656.34;10498904;28;20048;-53
2021/09/12 02:34:27;;;;;;;16.23;8.38;;;;;;;15.62;100.00;101648.50;10498594;28;20404;-54
2021/09/12 02:39:30;;;;;;;12.82;8.30;;;;;;;15.66;100.00;101643.88;10498338;28;20045;-53
2021/09/12 02:44:32;;;;;;;15.98;8.23;;;;;;;15.38;100.00;101648.28;10498825;28;20068;-54
2021/09/12 02:49:34;;;;;;;10.70;7.53;;;;;;;15.30;100.00;101648.78;10498064;28;20053;-51
2021/09/12 02:54:37;;;;;;;14.80;7.97;;;;;;;15.33;100.00;101645.97;10498394;28;20040;-52
2021/09/12 02:59:39;;;;;;;13.45;8.30;;;;;;;15.24;100.00;101644.72;10498128;28;20051;-53
2021/09/12 03:04:41;;;;;;;12.07;7.47;;;;;;;15.24;100.00;101650.00;10497927;28;20480;-53
2021/09/12 03:09:43;;;;;;;15.32;8.63;;;;;;;15.13;100.00;101649.88;10497766;28;20044;-53
2021/09/12 03:14:46;;;;;;;12.80;8.90;;;;;;;14.90;100.00;101659.22;10497772;28;20485;-55
2021/09/12 03:19:48;;;;;;;14.60;8.95;;;;;;;14.99;100.00;101661.25;10497832;28;20044;-52
2021/09/12 03:24:51;;;;;;;15.35;9.40;;;;;;;14.70;100.00;101654.31;10497279;28;20424;-54
2021/09/12 03:29:53;;;;;;;18.42;9.15;;;;;;;14.80;100.00;101666.00;10497405;28;20106;-53
2021/09/12 03:34:55;;;;;;;18.90;9.55;;;;;;;14.90;100.00;101664.47;10498438;28;20059;-53
2021/09/12 03:39:58;;;;;;;9.75;7.95;;;;;;;14.93;100.00;101660.78;10505216;28;20045;-53
2021/09/12 03:45:00;;;;;;;24.75;12.25;;;;;;;14.68;100.00;101651.78;10505374;28;20056;-55
2021/09/12 03:50:03;;;;;;;16.40;11.70;;;;;;;14.83;100.00;101660.53;10505501;28;20045;-55
2021/09/12 03:55:07;;;;;;;19.27;10.43;;;;;;;14.59;100.00;101673.41;10505429;28;20048;-54
2021/09/12 04:00:10;;;;;;;24.77;12.13;;;;;;;14.65;100.00;101665.97;10504213;28;20044;-51
2021/09/12 04:05:13;;;;;;;19.10;12.43;;;;;;;14.70;100.00;101664.88;10504305;28;20060;-50
2021/09/12 04:10:15;;;;;;;20.92;12.80;;;;;;;14.69;100.00;101664.00;10504122;28;20074;-56
2021/09/12 04:15:18;;;;;;;26.05;15.13;;;;;;;14.39;100.00;101659.63;10504011;28;20055;-55
2021/09/12 04:20:20;;;;;;;22.85;15.40;;;;;;;14.52;100.00;101662.34;10503505;28;20138;-53
2021/09/12 04:25:22;;;;;;;28.58;14.55;;;;;;;14.62;100.00;101660.03;10503621;28;20431;-55
2021/09/12 04:30:25;;;;;;;23.92;13.30;;;;;;;14.52;100.00;101664.16;10503392;28;20056;-54
2021/09/12 04:35:27;;;;;;;23.85;13.57;;;;;;;14.34;100.00;101664.31;10503214;28;20489;-54
2021/09/12 04:40:29;;;;;;;24.67;14.02;;;;;;;14.26;100.00;101662.13;10502883;28;20045;-52
2021/09/12 04:45:32;;;;;;;31.98;14.73;;;;;;;14.44;100.00;101668.09;10503439;28;20048;-53
2021/09/12 04:50:34;;;;;;;36.10;18.17;;;;;;;14.13;100.00;101669.06;10502547;28;20049;-53
2021/09/12 04:55:37;;;;;;;26.25;14.70;;;;;;;14.28;100.00;101677.84;10502102;28;20071;-52
2021/09/12 05:00:39;;;;;;;27.65;16.50;;;;;;;14.30;100.00;101674.16;10502334;28;20040;-51
2021/09/12 05:05:42;;;;;;;23.45;13.23;;;;;;;14.43;100.00;101684.84;10502049;28;20049;-53
2021/09/12 05:10:45;;;;;;;25.05;15.45;;;;;;;14.22;100.00;101692.25;10502196;28;20508;-53
2021/09/12 05:15:47;;;;;;;22.75;14.68;;;;;;;14.38;100.00;101686.06;10501778;28;20051;-57
2021/09/12 05:20:50;;;;;;;25.38;14.20;;;;;;;14.11;100.00;101694.63;10502047;28;20507;-57
2021/09/12 05:25:57;;;;;;;25.65;16.30;;;;;;;14.21;100.00;101698.44;10501479;28;20072;-57
2021/09/12 05:30:59;;;;;;;25.98;16.42;;;;;;;14.01;100.00;101701.38;10500969;28;20044;-58
2021/09/12 05:36:01;;;;;;;28.30;16.08;;;;;;;14.10;100.00;101711.38;10500951;28;20040;-55
2021/09/12 05:41:04;;;;;;;21.17;14.68;;;;;;;14.18;100.00;101708.28;10501147;28;20048;-57
2021/09/12 05:46:06;;;;;;;25.95;14.65;;;;;;;13.83;100.00;101714.63;10500151;28;20488;-58
2021/09/12 05:51:09;;;;;;;25.48;14.32;;;;;;;13.93;100.00;101710.53;10500507;28;20071;-57
2021/09/12 05:56:11;;;;;;;24.67;13.18;;;;;;;14.19;100.00;101710.84;10500462;28;20052;-58
2021/09/12 06:01:14;;;;;;;23.33;14.73;;;;;;;13.84;100.00;101720.75;10499114;28;20400;-58
2021/09/12 06:06:16;;;;;;;23.20;11.70;;;;;;;13.97;100.00;101720.91;10499688;28;20044;-57
2021/09/12 06:11:19;;;;;;;18.65;12.23;;;;;;;13.98;100.00;101726.09;10499263;28;20055;-55
2021/09/12 06:16:21;;;;;;;15.27;10.10;;;;;;;14.30;100.00;101726.00;10499349;28;20049;-57
2021/09/12 06:21:24;;;;;;;16.48;10.38;;;;;;;14.30;100.00;101718.94;10499117;28;20534;-56
2021/09/12 06:26:26;;;;;;;18.23;9.23;;;;;;;14.40;100.00;101731.59;10499031;28;20049;-56
2021/09/12 06:31:29;;;;;;;16.48;8.52;;;;;;;14.38;100.00;101729.03;10499156;28;20045;-58
2021/09/12 06:36:31;;;;;;;13.00;9.32;;;;;;;14.38;100.00;101718.50;10498848;28;20113;-56
2021/09/12 06:41:34;;;;;;;18.50;10.10;;;;;;;14.15;100.00;101730.38;10498605;28;20125;-54
2021/09/12 06:46:36;;;;;;;13.63;9.93;;;;;;;14.24;100.00;101729.00;10498373;28;20509;-57
2021/09/12 06:51:38;;;;;;;16.88;9.77;;;;;;;14.44;100.00;101726.06;10498297;28;20051;-57
2021/09/12 06:56:41;;;;;;;13.05;9.68;;;;;;;14.70;100.00;101733.41;10498200;28;20052;-56
2021/09/12 07:01:43;;;;;;;12.85;9.38;;;;;;;14.64;100.00;101726.69;10497895;28;20052;-58
2021/09/12 07:06:46;;;;;;;13.43;9.18;;;;;;;15.14;100.00;101721.91;10498103;28;20127;-57
2021/09/12 07:11:48;;;;;;;11.85;8.20;;;;;;;15.53;100.00;101721.22;10501265;28;20041;-59
2021/09/12 07:17:11;;;;;;;13.27;10.02;;;;;;;15.15;100.00;101718.34;10507031;28;20056;-58
2021/09/12 07:22:13;;;;;;;18.00;9.93;;;;;;;15.30;100.00;101711.25;10506196;28;20060;-54
2021/09/12 07:27:15;;;;;;;15.93;9.32;;;;;;;15.58;100.00;101718.25;10506061;28;20040;-57
2021/09/12 07:32:27;;;;;;;21.65;10.32;;;;;;;15.77;100.00;101716.19;10506002;28;20045;-58
2021/09/12 07:37:29;;;;;;;16.13;9.95;;;;;;;16.58;100.00;101713.53;10505604;28;20056;-56
2021/09/12 07:42:32;;;;;;;12.00;8.70;;;;;;;17.23;94.02;101709.88;10505309;28;20484;-57
2021/09/12 07:47:34;;;;;;;15.27;9.27;;;;;;;17.35;91.95;101710.81;10505158;28;20102;-57
2021/09/12 07:52:41;;;;;;;15.82;9.32;;;;;;;17.44;93.84;101716.28;10505121;28;20056;-56
2021/09/12 07:57:44;;;;;;;14.00;9.27;;;;;;;17.23;94.40;101726.63;10504777;28;20156;-57
2021/09/12 08:02:46;;;;;;;13.05;7.93;;;;;;;17.47;94.85;101723.19;10504397;28;20044;-57
2021/09/12 08:07:50;;;;;;;17.15;10.20;;;;;;;17.58;93.46;101723.22;10504226;28;20055;-56
2021/09/12 08:12:52;;;;;;;18.40;9.38;;;;;;;17.94;92.62;101729.50;10504103;28;20049;-57
2021/09/12 08:17:55;;;;;;;17.48;9.15;;;;;;;18.59;89.35;101721.97;10503795;28;20544;-58
2021/09/12 08:22:57;;;;;;;13.65;8.38;;;;;;;18.46;88.11;101732.69;10503291;28;20049;-55
2021/09/12 08:28:00;;;;;;;15.13;9.05;;;;;;;18.52;86.50;101744.63;10503978;28;20106;-58
2021/09/12 08:33:12;;;;;;;15.90;8.68;;;;;;;17.99;87.62;101742.41;10503328;28;20056;-59
2021/09/12 08:38:15;;;;;;;12.73;8.60;;;;;;;18.19;88.71;101751.53;10503777;28;20055;-59
2021/09/12 08:43:18;;;;;;;14.02;8.73;;;;;;;18.63;86.71;101752.63;10503388;28;20051;-56
2021/09/12 08:48:21;;;;;;;11.95;7.45;;;;;;;19.05;87.21;101752.94;10501605;28;20049;-57
2021/09/12 08:53:23;;;;;;;11.60;7.20;;;;;;;19.46;87.63;101766.56;10503106;28;20049;-58
2021/09/12 08:58:27;;;;;;;13.13;8.13;;;;;;;18.89;85.80;101753.28;10502247;28;20100;-58
2021/09/12 09:03:38;;;;;;;10.90;6.65;;;;;;;19.81;80.01;101750.47;10502788;28;20523;-57
2021/09/12 09:08:51;;;;;;;12.07;8.02;;;;;;;19.76;80.28;101751.81;10501959;28;20044;-57
2021/09/12 09:13:54;;;;;;;11.48;7.57;;;;;;;19.21;85.24;101754.38;10502315;28;20049;-57
2021/09/12 09:19:04;;;;;;;14.20;7.47;;;;;;;18.80;84.56;101756.63;10499959;28;20048;-55
2021/09/12 09:24:28;;;;;;;16.80;8.38;;;;;;;18.54;87.90;101756.81;10501793;28;20048;-59
2021/09/12 09:29:32;;;;;;;9.20;6.68;;;;;;;19.16;86.95;101762.72;10501432;28;20056;-58
2021/09/12 09:34:37;;;;;;;14.02;6.40;;;;;;;20.44;82.29;101767.50;10499707;28;20459;-58
2021/09/12 09:39:41;;;;;;;11.55;6.53;;;;;;;21.92;73.99;101758.19;10501003;28;20054;-56
2021/09/12 09:45:09;;;;;;;8.95;5.70;;;;;;;22.82;72.27;101769.50;10500430;28;20507;-58
2021/09/12 09:50:32;;;;;;;11.32;6.43;;;;;;;21.12;73.98;101752.78;10500115;28;20059;-55
2021/09/12 09:55:34;;;;;;;7.88;5.85;;;;;;;20.54;80.16;101771.91;10498942;28;20052;-58
2021/09/12 10:00:37;;;;;;;15.98;6.45;;;;;;;19.76;84.70;101763.28;10499800;28;20369;-58
2021/09/12 10:05:39;;;;;;;10.68;6.53;;;;;;;18.96;85.26;101758.97;10500466;28;20055;-58
2021/09/12 10:10:42;;;;;;;13.38;6.55;;;;;;;19.01;87.68;101754.13;10498095;28;20048;-58
2021/09/12 10:15:49;;;;;;;10.02;6.10;;;;;;;19.27;86.42;101749.44;10498193;28;20075;-57
2021/09/12 10:20:54;;;;;;;8.30;5.55;;;;;;;19.25;88.32;101748.72;10497782;28;20048;-57
2021/09/12 10:26:02;;;;;;;9.45;5.32;;;;;;;19.35;86.63;101761.25;10498982;28;20048;-57
2021/09/12 10:31:27;;;;;;;10.77;7.75;;;;;;;19.47;86.22;101758.47;10499464;28;20045;-56
2021/09/12 10:36:30;;;;;;;12.77;7.93;;;;;;;19.26;81.92;101753.03;10498438;28;20045;-58
2021/09/12 10:41:33;;;;;;;12.95;7.47;;;;;;;19.66;84.34;101754.34;10498353;28;20041;-59
2021/09/12 10:46:35;;;;;;;11.90;7.45;;;;;;;19.31;85.48;101752.69;10498272;28;20056;-57
2021/09/12 10:51:39;;;;;;;11.13;7.15;;;;;;;18.83;86.89;101750.25;10498585;28;20071;-57
2021/09/12 10:56:41;;;;;;;14.85;6.68;;;;;;;19.60;86.61;101749.50;10498023;28;20041;-58
2021/09/12 11:01:46;;;;;;;10.40;6.75;;;;;;;19.57;84.78;101747.97;10498250;28;20041;-56
2021/09/12 11:07:04;;;;;;;13.65;7.47;;;;;;;19.52;84.42;101750.16;10498720;28;20052;-58
2021/09/12 11:12:06;;;;;;;15.10;8.75;;;;;;;19.93;81.83;101758.41;10498115;28;20049;-58
2021/09/12 11:17:11;;;;;;;14.77;8.50;;;;;;;20.20;83.29;101753.44;10496463;28;20493;-58
2021/09/12 11:22:13;;;;;;;12.38;8.23;;;;;;;20.39;83.37;101758.09;10498112;28;20067;-57
2021/09/12 11:27:16;;;;;;;15.57;10.13;;;;;;;20.18;81.50;101757.22;10498183;28;20044;-58
2021/09/12 11:32:20;;;;;;;12.25;8.90;;;;;;;20.41;83.71;101757.97;10497489;28;20049;-57
2021/09/12 11:37:23;;;;;;;12.15;9.07;;;;;;;20.15;80.67;101755.66;10497156;28;20488;-55
2021/09/12 11:42:26;;;;;;;13.80;8.85;;;;;;;20.65;80.92;101751.56;10497612;28;20052;-59
2021/09/12 11:47:28;;;;;;;11.90;9.10;;;;;;;20.82;80.69;101748.31;10497041;28;20045;-52
2021/09/12 11:52:51;;;;;;;15.43;10.55;;;;;;;20.72;76.93;101737.59;10497551;28;20045;-52
2021/09/12 11:58:06;;;;;;;15.13;10.45;;;;;;;21.79;79.64;101734.50;10500260;28;20044;-55
2021/09/12 12:03:10;;;;;;;13.50;10.38;;;;;;;22.72;76.09;101729.50;10504903;28;20048;-55
2021/09/12 12:08:18;;;;;;;13.48;10.55;;;;;;;23.16;71.69;101735.13;10503173;28;20447;-53
2021/09/12 12:13:31;;;;;;;17.45;10.88;;;;;;;23.61;67.46;101725.44;10504795;28;20055;-53
2021/09/12 12:18:33;;;;;;;14.07;9.43;;;;;;;24.22;69.98;101725.69;10504343;28;20507;-57
2021/09/12 12:23:36;;;;;;;12.98;10.73;;;;;;;23.00;67.23;101727.72;10503824;28;20139;-52
2021/09/12 12:28:38;;;;;;;14.23;10.27;;;;;;;24.60;67.62;101731.69;10503546;28;20052;-54
2021/09/12 12:33:43;;;;;;;16.05;9.98;;;;;;;25.34;68.49;101702.56;10503780;28;20048;-53
2021/09/12 12:38:47;;;;;;;17.45;10.98;;;;;;;23.64;65.08;101716.28;10502944;28;20044;-52
2021/09/12 12:43:49;;;;;;;15.45;10.95;;;;;;;23.91;68.78;101718.91;10502994;28;20488;-55
2021/09/12 12:49:03;;;;;;;13.55;10.75;;;;;;;22.68;73.55;101722.78;10502859;28;20053;-56
2021/09/12 12:54:05;;;;;;;16.13;10.45;;;;;;;23.10;71.08;101718.84;10502660;28;20055;-55
2021/09/12 12:59:12;;;;;;;15.55;12.68;;;;;;;22.35;72.36;101724.13;10502842;28;20049;-54
2021/09/12 13:04:14;;;;;;;20.10;12.85;;;;;;;22.84;70.75;101719.47;10501680;28;20052;-51
2021/09/12 13:09:17;;;;;;;18.45;12.73;;;;;;;22.24;70.32;101719.72;10500637;28;20443;-56
2021/09/12 13:14:19;;;;;;;13.90;12.13;;;;;;;22.21;71.01;101714.69;10502021;28;20044;-58
2021/09/12 13:19:22;;;;;;;23.95;11.15;;;;;;;25.88;63.17;101710.19;10501425;28;20519;-52
2021/09/12 13:24:24;;;;;;;14.77;11.70;;;;;;;25.57;60.50;101713.50;10501599;28;20059;-54
2021/09/12 13:29:26;;;;;;;14.18;10.80;;;;;;;25.92;60.02;101708.84;10501166;28;20040;-51
2021/09/12 13:34:29;;;;;;;17.77;10.73;;;;;;;24.80;58.05;101711.72;10501406;28;20053;-55
2021/09/12 13:39:31;;;;;;;17.20;10.95;;;;;;;23.59;64.80;101705.19;10500740;28;20045;-54
2021/09/12 13:44:33;;;;;;;17.65;9.85;;;;;;;24.87;62.42;101695.00;10500768;28;20084;-54
2021/09/12 13:49:35;;;;;;;11.77;10.48;;;;;;;25.68;59.53;101694.41;10500382;28;20048;-54
2021/09/12 13:54:38;;;;;;;12.75;9.13;;;;;;;24.57;59.16;101689.16;10500183;28;20049;-57
2021/09/12 13:59:40;;;;;;;9.95;8.65;;;;;;;26.25;56.40;101696.28;10499815;28;20045;-55
2021/09/12 14:04:42;;;;;;;10.85;8.85;;;;;;;25.70;56.78;101686.22;10498641;28;20511;-55
2021/09/12 14:09:45;;;;;;;12.25;9.77;;;;;;;23.57;60.80;101681.31;10499514;28;20439;-58
2021/09/12 14:14:47;;;;;;;16.25;11.05;;;;;;;24.36;61.84;101686.81;10499298;28;20053;-58
2021/09/12 14:19:49;;;;;;;9.93;8.98;;;;;;;26.07;56.99;101685.72;10499162;28;20063;-58
2021/09/12 14:24:52;;;;;;;12.82;10.13;;;;;;;26.29;55.16;101683.38;10499500;28;20048;-56
2021/09/12 14:29:54;;;;;;;14.05;10.38;;;;;;;24.97;55.93;101688.50;10498490;28;20051;-55
2021/09/12 14:34:56;;;;;;;11.38;9.57;;;;;;;25.72;53.37;101678.81;10498831;28;20049;-55
2021/09/12 14:39:59;;;;;;;12.55;8.50;;;;;;;25.32;57.46;101675.09;10498695;28;20051;-57
2021/09/12 14:45:01;;;;;;;10.65;9.07;;;;;;;22.81;65.70;101677.06;10499042;28;20051;-55
2021/09/12 14:50:04;;;;;;;14.52;10.20;;;;;;;23.61;62.63;101669.31;10498611;28;20044;-58
2021/09/12 14:55:13;;;;;;;10.95;8.65;;;;;;;23.92;65.54;101674.28;10498960;28;20049;-55
2021/09/12 15:00:15;;;;;;;11.40;8.95;;;;;;;23.47;66.16;101668.00;10498093;28;20050;-53
2021/09/12 15:05:18;;;;;;;17.85;10.25;;;;;;;23.71;65.09;101667.41;10498149;28;20044;-57
2021/09/12 15:10:21;;;;;;;11.70;9.02;;;;;;;24.63;61.45;101656.41;10497810;28;20045;-56
2021/09/12 15:15:24;;;;;;;10.93;9.55;;;;;;;23.49;65.40;101662.53;10498149;28;20052;-57
2021/09/12 15:20:26;;;;;;;16.23;9.57;;;;;;;23.64;63.75;101657.50;10498248;28;20056;-54
2021/09/12 15:25:30;;;;;;;12.75;9.18;;;;;;;23.63;61.24;101653.94;10497790;28;20062;-56
2021/09/12 15:30:32;;;;;;;10.98;8.50;;;;;;;23.68;63.38;101651.66;10498001;28;20062;-56
2021/09/12 15:35:36;;;;;;;10.75;8.48;;;;;;;22.73;64.81;101655.59;10505574;28;20555;-52
2021/09/12 15:40:39;;;;;;;9.18;8.27;;;;;;;21.35;67.17;101662.03;10505605;28;20048;-56
2021/09/12 15:45:45;;;;;;;12.60;8.32;;;;;;;22.39;67.17;101658.81;10505297;28;20118;-57
2021/09/12 15:50:47;;;;;;;15.15;11.07;;;;;;;21.70;69.43;101660.69;10504015;28;20052;-54
2021/09/12 15:55:50;;;;;;;12.82;11.50;;;;;;;21.33;72.36;101661.31;10505408;28;20053;-55
2021/09/12 16:00:52;;;;;;;14.27;11.10;;;;;;;21.19;75.87;101656.41;10504517;28;20049;-54
2021/09/12 16:05:55;;;;;;;20.63;12.88;;;;;;;21.34;74.29;101661.19;10504937;28;20052;-54
2021/09/12 16:10:57;;;;;;;20.00;13.20;;;;;;;20.91;76.06;101649.03;10504880;28;20048;-57
2021/09/12 16:16:00;;;;;;;15.38;11.55;;;;;;;21.08;75.71;101652.88;10504169;28;20044;-53
2021/09/12 16:21:06;;;;;;;13.15;11.48;;;;;;;20.67;80.11;101651.19;10503870;28;20064;-55
2021/09/12 16:26:09;;;;;;;12.50;10.52;;;;;;;20.66;80.43;101645.03;10504135;28;20496;-55
2021/09/12 16:31:12;;;;;;;11.48;9.65;;;;;;;20.27;83.47;101654.56;10504304;28;20040;-55
2021/09/12 16:36:15;;;;;;;10.98;9.63;;;;;;;20.10;86.63;101658.66;10503852;28;20173;-51
2021/09/12 16:41:18;;;;;;;12.38;9.88;;;;;;;19.88;87.70;101659.63;10503577;28;20052;-56
2021/09/12 16:51:41;;;;;;;14.93;10.23;;;;;;;19.66;89.95;101656.06;10503032;28;20047;-57
2021/09/12 16:56:43;;;;;;;14.38;9.90;;;;;;;19.39;93.41;101657.34;10502737;28;20056;-53
2021/09/12 17:01:46;;;;;;;14.73;10.52;;;;;;;19.14;95.90;101661.13;10502922;28;20059;-52
2021/09/12 17:06:49;;;;;;;11.35;10.20;;;;;;;19.26;96.07;101651.34;10502227;28;20056;-57
2021/09/12 17:11:51;;;;;;;14.52;12.02;;;;;;;19.24;94.79;101654.09;10502428;28;20040;-52
2021/09/12 17:16:54;;;;;;;11.82;10.15;;;;;;;19.28;91.98;101660.88;10501661;28;20432;-54
2021/09/12 17:21:57;;;;;;;12.05;9.88;;;;;;;19.01;92.85;101660.41;10502296;28;20091;-53
2021/09/12 17:27:02;;;;;;;18.45;6.47;;;;;;;19.25;87.18;101665.59;10501444;28;20404;-55
2021/09/12 17:32:05;;;;;;;6.03;5.40;;;;;;;19.00;87.75;101662.25;10501268;28;20386;-56
2021/09/12 17:37:07;;;;;;;4.63;4.15;;;;;;;19.08;87.95;101666.91;10500963;28;20377;-54
2021/09/12 17:42:09;;;;;;;6.07;3.90;;;;;;;18.77;90.54;101677.28;10500945;28;20048;-55
2021/09/12 17:47:12;;;;;;;3.42;2.35;;;;;;;18.46;90.08;101677.03;10500475;28;20056;-56
2021/09/12 17:52:14;;;;;;;6.20;2.80;;;;;;;18.25;92.09;101676.84;10500529;28;20048;-51
2021/09/12 17:57:16;;;;;;;5.13;2.85;;;;;;;18.03;91.45;101680.28;10499580;28;20051;-56
2021/09/12 18:02:19;;;;;;;8.07;2.83;;;;;;;18.14;93.42;101682.09;10500086;28;20049;-57
2021/09/12 18:07:21;;;;;;;4.18;2.08;;;;;;;17.72;96.32;101685.19;10499705;28;20447;-53
2021/09/12 18:12:24;;;;;;;6.07;2.70;;;;;;;17.45;98.27;101694.19;10499806;28;20048;-54
2021/09/12 18:17:26;;;;;;;5.05;2.45;;;;;;;17.35;100.00;101698.44;10499705;28;20056;-53
2021/09/12 18:22:32;;;;;;;5.50;2.65;;;;;;;17.03;100.00;101698.94;10499773;28;20045;-50
2021/09/12 18:27:35;;;;;;;3.40;2.70;;;;;;;16.90;100.00;101700.75;10498894;28;20515;-56
2021/09/12 18:32:37;;;;;;;5.32;2.88;;;;;;;16.78;100.00;101717.41;10499097;28;20395;-55
2021/09/12 18:37:42;;;;;;;3.78;2.33;;;;;;;16.88;100.00;101721.19;10498797;28;20048;-52
2021/09/12 18:42:45;;;;;;;7.07;3.03;;;;;;;16.51;100.00;101721.03;10499764;28;20044;-55
2021/09/12 18:47:49;;;;;;;3.72;2.53;;;;;;;16.88;100.00;101731.75;10498620;28;20083;-52
2021/09/12 18:52:51;;;;;;;4.72;2.42;;;;;;;16.49;100.00;101750.19;10498267;28;20055;-51
2021/09/12 18:57:54;;;;;;;4.50;2.55;;;;;;;16.31;100.00;101749.63;10498139;28;20488;-54
2021/09/12 19:02:56;;;;;;;3.42;3.05;;;;;;;16.25;100.00;101757.13;10498245;28;20059;-52
2021/09/12 19:08:00;;;;;;;5.05;3.03;;;;;;;15.93;100.00;101760.91;10498137;28;20123;-55
2021/09/12 19:13:03;;;;;;;5.93;3.17;;;;;;;15.87;100.00;101771.00;10498034;28;20049;-53
2021/09/12 19:18:06;;;;;;;4.75;2.65;;;;;;;15.76;100.00;101769.06;10498052;28;20142;-51
2021/09/12 19:23:09;;;;;;;4.45;2.45;;;;;;;15.68;100.00;101773.97;10498057;28;20044;-51
2021/09/12 19:28:11;;;;;;;6.28;3.70;;;;;;;15.57;100.00;101775.50;10497757;28;20052;-52
2021/09/12 19:33:13;;;;;;;4.72;2.90;;;;;;;15.53;100.00;101778.41;10497685;28;20055;-53
2021/09/12 19:38:16;;;;;;;5.07;2.92;;;;;;;15.39;100.00;101787.19;10497486;28;20052;-53
2021/09/12 19:43:18;;;;;;;6.32;2.65;;;;;;;15.26;100.00;101779.19;10496952;28;20052;-53
2021/09/12 19:48:20;;;;;;;6.80;2.42;;;;;;;15.10;100.00;101786.34;10497014;28;20500;-51
2021/09/12 19:53:23;;;;;;;4.20;2.25;;;;;;;15.12;100.00;101787.09;10497620;28;20044;-53
2021/09/12 19:58:26;;;;;;;6.47;2.55;;;;;;;15.15;100.00;101786.94;10496842;28;20136;-55
2021/09/12 20:03:28;;;;;;;4.95;2.65;;;;;;;15.04;100.00;101790.19;10498354;28;20053;-53
2021/09/12 20:08:31;;;;;;;4.53;2.65;;;;;;;14.79;100.00;101799.59;10497131;28;20076;-54
2021/09/12 20:13:34;;;;;;;2.58;2.35;;;;;;;14.71;100.00;101799.19;10496518;28;20041;-51
2021/09/12 20:18:37;;;;;;;3.60;2.17;;;;;;;14.68;100.00;101807.28;10499215;28;20432;-52
2021/09/12 20:23:40;;;;;;;2.70;2.50;;;;;;;14.48;100.00;101800.50;10504099;28;20052;-53
2021/09/12 20:28:42;;;;;;;5.72;2.50;;;;;;;14.47;100.00;101804.94;10503836;28;20040;-55
2021/09/12 20:33:44;;;;;;;6.47;2.22;;;;;;;14.41;100.00;101804.44;10503518;28;20108;-49
2021/09/12 20:38:47;;;;;;;8.45;2.88;;;;;;;14.36;100.00;101806.50;10503927;28;20049;-54
2021/09/12 20:43:49;;;;;;;4.05;2.58;;;;;;;14.25;100.00;101800.03;10503198;28;20051;-52
2021/09/12 20:48:52;;;;;;;4.20;2.67;;;;;;;14.29;100.00;101806.00;10503027;28;20045;-53
2021/09/12 20:53:54;;;;;;;5.57;2.80;;;;;;;14.21;100.00;101811.69;10503333;28;20044;-57
2021/09/12 20:58:56;;;;;;;5.13;2.25;;;;;;;14.09;100.00;101817.66;10502402;28;20054;-53
2021/09/12 21:03:59;;;;;;;7.20;3.13;;;;;;;14.10;100.00;101817.56;10503087;28;20049;-49
2021/09/12 21:09:01;;;;;;;3.75;3.45;;;;;;;14.04;100.00;101820.53;10502572;28;20041;-52
2021/09/12 21:14:04;;;;;;;7.40;3.53;;;;;;;13.94;100.00;101816.72;10502692;28;20048;-52
2021/09/12 21:19:06;;;;;;;6.05;3.25;;;;;;;13.88;100.00;101817.88;10502250;28;20052;-53
2021/09/12 21:24:09;;;;;;;8.68;4.28;;;;;;;13.94;100.00;101814.09;10501615;28;20480;-52
2021/09/12 21:29:11;;;;;;;6.32;2.85;;;;;;;13.82;100.00;101817.38;10500174;28;20051;-54
2021/09/12 21:34:13;;;;;;;4.45;2.53;;;;;;;13.79;100.00;101826.31;10501460;28;20049;-56
2021/09/12 21:39:16;;;;;;;7.05;3.55;;;;;;;13.74;100.00;101820.44;10500705;28;20506;-52
2021/09/12 21:44:18;;;;;;;5.18;3.30;;;;;;;13.66;100.00;101826.09;10500644;28;20404;-55
2021/09/12 21:49:20;;;;;;;9.65;3.75;;;;;;;13.68;100.00;101831.28;10500347;28;20040;-54
2021/09/12 21:54:23;;;;;;;4.90;3.13;;;;;;;13.63;100.00;101842.06;10500478;28;20040;-53
2021/09/12 21:59:25;;;;;;;5.85;3.20;;;;;;;13.58;100.00;101838.81;10500258;28;20044;-52
2021/09/12 22:04:28;;;;;;;7.70;3.00;;;;;;;13.53;100.00;101848.75;10499902;28;20500;-52
2021/09/12 22:09:30;;;;;;;12.32;4.03;;;;;;;13.52;100.00;101844.44;10499813;28;20044;-55
2021/09/12 22:14:33;;;;;;;6.10;3.22;;;;;;;13.44;100.00;101849.25;10499931;28;20099;-51
2021/09/12 22:19:36;;;;;;;3.75;3.15;;;;;;;13.37;100.00;101859.25;10498986;28;20094;-50
2021/09/12 22:24:38;;;;;;;4.80;3.30;;;;;;;13.31;100.00;101849.84;10499311;28;20053;-53
2021/09/12 22:29:40;;;;;;;5.20;3.30;;;;;;;13.34;100.00;101854.13;10498747;28;20052;-53
2021/09/12 22:34:43;;;;;;;3.58;3.28;;;;;;;13.31;100.00;101851.63;10499108;28;20049;-51
2021/09/12 22:39:45;;;;;;;8.68;3.30;;;;;;;13.28;100.00;101852.66;10498378;28;20052;-54
2021/09/12 22:44:47;;;;;;;10.07;3.15;;;;;;;13.26;100.00;101857.13;10499149;28;20049;-54
2021/09/12 22:49:50;;;;;;;11.15;4.70;;;;;;;13.20;100.00;101857.44;10498523;28;20045;-53
2021/09/12 22:54:52;;;;;;;4.07;3.25;;;;;;;13.18;100.00;101860.16;10498912;28;20051;-56